createdAt,value
2018-07-23T00:01:53.719Z,16.40
2018-07-23T00:04:22.032Z,16.30
2018-07-23T00:06:50.260Z,16.30
2018-07-23T00:09:18.447Z,16.30
2018-07-23T00:11:46.655Z,16.30
2018-07-23T00:14:14.866Z,16.30
2018-07-23T00:16:43.206Z,16.30
2018-07-23T00:19:11.436Z,16.30
2018-07-23T00:21:39.601Z,16.20
2018-07-23T00:24:07.870Z,16.20
2018-07-23T00:26:36.409Z,16.20
2018-07-23T00:29:04.678Z,16.20
2018-07-23T00:31:32.835Z,16.20
2018-07-23T00:34:01.013Z,16.10
2018-07-23T00:36:29.218Z,16.10
2018-07-23T00:38:57.380Z,16.00
2018-07-23T00:41:25.556Z,16.00
2018-07-23T00:43:53.727Z,16.00
2018-07-23T00:46:21.883Z,15.90
2018-07-23T00:48:50.033Z,15.90
2018-07-23T00:51:19.361Z,15.90
2018-07-23T00:53:47.526Z,15.80
2018-07-23T00:56:15.723Z,15.80
2018-07-23T00:58:43.863Z,15.80
2018-07-23T01:01:12.072Z,15.70
2018-07-23T01:03:40.225Z,15.80
2018-07-23T01:06:08.383Z,15.80
2018-07-23T01:08:36.591Z,15.70
2018-07-23T01:11:04.887Z,15.70
2018-07-23T01:13:33.039Z,15.70
2018-07-23T01:16:01.324Z,15.70
2018-07-23T01:18:29.473Z,15.60
2018-07-23T01:20:57.664Z,15.60
2018-07-23T01:23:25.848Z,15.60
2018-07-23T01:25:54.024Z,15.60
2018-07-23T01:28:22.211Z,15.50
2018-07-23T01:30:50.408Z,15.50
2018-07-23T01:33:18.563Z,15.50
2018-07-23T01:35:46.712Z,15.50
2018-07-23T01:38:14.859Z,15.50
2018-07-23T01:40:43.023Z,15.40
2018-07-23T01:43:11.156Z,15.40
2018-07-23T01:45:39.375Z,15.40
2018-07-23T01:48:07.598Z,15.40
2018-07-23T01:50:35.735Z,15.40
2018-07-23T01:53:03.876Z,15.40
2018-07-23T01:55:32.021Z,15.30
2018-07-23T01:58:00.374Z,15.30
2018-07-23T02:00:28.514Z,15.30
2018-07-23T02:02:56.696Z,15.30
2018-07-23T02:05:24.871Z,15.20
2018-07-23T02:07:53.024Z,15.20
2018-07-23T02:10:21.234Z,15.20
2018-07-23T02:12:49.510Z,15.20
2018-07-23T02:15:17.710Z,15.20
2018-07-23T02:17:45.848Z,15.10
2018-07-23T02:20:14.065Z,15.10
2018-07-23T02:22:42.307Z,15.10
2018-07-23T02:25:10.539Z,15.10
2018-07-23T02:27:38.884Z,15.10
2018-07-23T02:30:07.880Z,15.10
2018-07-23T02:32:36.178Z,15.10
2018-07-23T02:35:04.452Z,15.10
2018-07-23T02:37:32.728Z,15.10
2018-07-23T02:40:01.052Z,15.10
2018-07-23T02:42:29.312Z,15.10
2018-07-23T02:44:57.549Z,15.10
2018-07-23T02:47:25.742Z,15.00
2018-07-23T02:49:53.959Z,14.90
2018-07-23T02:52:22.164Z,14.90
2018-07-23T02:54:50.506Z,14.90
2018-07-23T02:57:18.686Z,14.90
2018-07-23T02:59:46.896Z,14.90
2018-07-23T03:02:15.051Z,14.90
2018-07-23T03:04:43.232Z,14.90
2018-07-23T03:07:11.604Z,14.90
2018-07-23T03:09:39.775Z,14.90
2018-07-23T03:12:08.591Z,14.90
2018-07-23T03:14:36.829Z,14.80
2018-07-23T03:17:04.964Z,14.80
2018-07-23T03:19:33.139Z,14.80
2018-07-23T03:22:01.371Z,14.80
2018-07-23T03:24:29.521Z,14.80
2018-07-23T03:26:58.153Z,14.80
2018-07-23T03:29:26.300Z,14.80
2018-07-23T03:31:54.435Z,14.70
2018-07-23T03:34:22.583Z,14.70
2018-07-23T03:36:50.716Z,14.70
2018-07-23T03:39:18.899Z,14.60
2018-07-23T03:41:47.060Z,14.60
2018-07-23T03:44:15.244Z,14.50
2018-07-23T03:46:43.502Z,14.50
2018-07-23T03:49:11.684Z,14.50
2018-07-23T03:51:39.786Z,14.50
2018-07-23T03:54:07.951Z,14.40
2018-07-23T03:56:36.710Z,14.40
2018-07-23T03:59:04.829Z,14.50
2018-07-23T04:01:32.968Z,14.50
2018-07-23T04:04:01.095Z,14.50
2018-07-23T04:06:29.264Z,14.50
2018-07-23T04:08:57.432Z,14.50
2018-07-23T04:13:53.515Z,14.50
2018-07-23T04:16:21.708Z,14.50
2018-07-23T04:18:49.883Z,14.50
2018-07-23T04:21:18.079Z,14.50
2018-07-23T04:23:46.323Z,14.50
2018-07-23T04:26:15.344Z,14.40
2018-07-23T04:28:43.606Z,14.50
2018-07-23T04:31:11.805Z,14.50
2018-07-23T04:33:40.023Z,14.50
2018-07-23T04:36:08.223Z,14.60
2018-07-23T04:38:36.457Z,14.60
2018-07-23T04:41:04.644Z,14.70
2018-07-23T04:43:32.826Z,14.70
2018-07-23T04:46:01.026Z,14.70
2018-07-23T04:48:29.215Z,14.80
2018-07-23T04:50:57.431Z,14.80
2018-07-23T04:53:25.620Z,14.80
2018-07-23T04:55:53.917Z,14.90
2018-07-23T04:58:22.106Z,15.00
2018-07-23T05:00:50.303Z,15.10
2018-07-23T05:03:18.493Z,15.10
2018-07-23T05:05:46.716Z,15.20
2018-07-23T05:08:14.951Z,15.30
2018-07-23T05:10:43.139Z,15.40
2018-07-23T05:13:11.315Z,15.70
2018-07-23T05:15:39.508Z,16.00
2018-07-23T05:18:07.728Z,16.30
2018-07-23T05:20:36.846Z,16.50
2018-07-23T05:23:05.083Z,16.70
2018-07-23T05:25:33.343Z,16.90
2018-07-23T05:28:01.535Z,17.00
2018-07-23T05:30:29.726Z,17.00
2018-07-23T05:32:57.964Z,17.10
2018-07-23T05:35:26.140Z,17.30
2018-07-23T05:37:54.316Z,17.60
2018-07-23T05:40:22.523Z,17.90
2018-07-23T05:42:50.720Z,18.20
2018-07-23T05:45:19.318Z,18.30
2018-07-23T05:47:47.507Z,18.30
2018-07-23T05:50:15.705Z,18.60
2018-07-23T05:52:43.892Z,18.80
2018-07-23T05:55:12.083Z,18.70
2018-07-23T05:57:40.293Z,18.40
2018-07-23T06:00:08.582Z,18.80
2018-07-23T06:02:36.751Z,19.10
2018-07-23T06:05:04.983Z,19.50
2018-07-23T06:07:33.274Z,19.70
2018-07-23T06:10:01.503Z,19.90
2018-07-23T06:12:29.707Z,19.80
2018-07-23T06:14:57.915Z,19.70
2018-07-23T06:17:26.168Z,20.10
2018-07-23T06:19:54.314Z,20.50
2018-07-23T06:22:22.464Z,20.10
2018-07-23T06:24:50.603Z,19.70
2018-07-23T06:27:18.744Z,20.20
2018-07-23T06:29:46.907Z,20.40
2018-07-23T06:32:15.196Z,20.80
2018-07-23T06:34:43.357Z,20.60
2018-07-23T06:37:11.533Z,20.60
2018-07-23T06:39:39.716Z,21.20
2018-07-23T06:42:07.890Z,21.40
2018-07-23T06:44:36.238Z,21.80
2018-07-23T06:47:04.583Z,21.60
2018-07-23T06:49:32.714Z,21.70
2018-07-23T06:52:00.921Z,21.30
2018-07-23T06:54:29.066Z,21.00
2018-07-23T06:56:57.233Z,21.70
2018-07-23T06:59:25.443Z,22.30
2018-07-23T07:01:53.670Z,22.60
2018-07-23T07:04:21.891Z,22.70
2018-07-23T07:06:50.051Z,23.00
2018-07-23T07:09:18.367Z,23.00
2018-07-23T07:11:46.534Z,23.10
2018-07-23T07:14:14.700Z,23.30
2018-07-23T07:16:42.925Z,23.70
2018-07-23T07:19:11.103Z,24.00
2018-07-23T07:21:39.337Z,24.00
2018-07-23T07:24:07.994Z,24.10
2018-07-23T07:26:36.207Z,23.70
2018-07-23T07:29:04.629Z,23.70
2018-07-23T07:31:32.933Z,24.10
2018-07-23T07:34:01.237Z,24.30
2018-07-23T07:36:29.464Z,24.30
2018-07-23T07:38:57.705Z,24.70
2018-07-23T07:41:25.943Z,24.70
2018-07-23T07:43:54.168Z,24.90
2018-07-23T07:46:22.489Z,24.70
2018-07-23T07:48:50.619Z,24.80
2018-07-23T07:51:18.896Z,24.90
2018-07-23T07:53:47.201Z,25.10
2018-07-23T07:56:15.380Z,25.10
2018-07-23T07:58:43.583Z,25.10
2018-07-23T08:01:11.812Z,25.30
2018-07-23T08:03:40.004Z,25.30
2018-07-23T08:06:08.444Z,25.50
2018-07-23T08:08:36.673Z,25.70
2018-07-23T08:11:04.923Z,25.70
2018-07-23T08:13:33.103Z,25.50
2018-07-23T08:16:01.341Z,25.50
2018-07-23T08:18:29.532Z,25.70
2018-07-23T08:20:57.750Z,25.90
2018-07-23T08:23:25.956Z,25.50
2018-07-23T08:25:54.202Z,25.50
2018-07-23T08:28:22.421Z,25.70
2018-07-23T08:30:50.660Z,25.30
2018-07-23T08:33:18.858Z,25.50
2018-07-23T08:35:47.099Z,26.00
2018-07-23T08:38:15.282Z,26.50
2018-07-23T08:40:43.512Z,26.60
2018-07-23T08:43:11.933Z,26.80
2018-07-23T08:45:40.039Z,26.80
2018-07-23T08:48:08.259Z,26.40
2018-07-23T08:53:04.537Z,26.60
2018-07-23T08:55:32.706Z,26.80
2018-07-23T08:58:00.970Z,26.90
2018-07-23T09:00:29.281Z,26.80
2018-07-23T09:02:57.900Z,26.60
2018-07-23T09:05:26.160Z,26.70
2018-07-23T09:07:54.355Z,26.60
2018-07-23T09:10:22.554Z,26.50
2018-07-23T09:12:50.800Z,26.50
2018-07-23T09:15:18.990Z,26.70
2018-07-23T09:17:47.323Z,26.80
2018-07-23T09:20:15.534Z,26.90
2018-07-23T09:22:43.707Z,27.10
2018-07-23T09:25:11.905Z,26.80
2018-07-23T09:27:40.170Z,26.90
2018-07-23T09:32:40.854Z,26.80
2018-07-23T09:35:09.136Z,27.10
2018-07-23T09:37:37.373Z,27.60
2018-07-23T09:40:06.498Z,28.00
2018-07-23T09:42:34.761Z,28.20
2018-07-23T09:45:03.910Z,28.20
2018-07-23T09:47:32.093Z,28.30
2018-07-23T09:50:00.342Z,28.60
2018-07-23T09:52:28.581Z,28.60
2018-07-23T09:54:56.760Z,28.50
2018-07-23T09:57:24.953Z,28.40
2018-07-23T09:59:53.142Z,28.30
2018-07-23T10:02:21.343Z,28.40
2018-07-23T10:04:49.527Z,28.30
2018-07-23T10:07:17.800Z,28.20
2018-07-23T10:09:46.141Z,28.30
2018-07-23T10:12:14.363Z,28.30
2018-07-23T10:14:42.587Z,28.40
2018-07-23T10:17:10.780Z,28.60
2018-07-23T10:19:38.971Z,28.70
2018-07-23T10:22:07.157Z,28.70
2018-07-23T10:24:35.303Z,28.80
2018-07-23T10:27:04.621Z,28.40
2018-07-23T10:29:32.812Z,28.60
2018-07-23T10:32:00.961Z,28.80
2018-07-23T10:34:29.177Z,28.90
2018-07-23T10:36:57.327Z,28.80
2018-07-23T10:39:25.480Z,28.70
2018-07-23T10:41:53.652Z,28.40
2018-07-23T10:44:21.792Z,28.50
2018-07-23T10:46:49.948Z,28.50
2018-07-23T10:49:18.124Z,28.60
2018-07-23T10:51:46.363Z,28.40
2018-07-23T10:54:14.559Z,28.60
2018-07-23T10:56:42.738Z,28.40
2018-07-23T10:59:11.008Z,28.30
2018-07-23T11:01:39.118Z,28.60
2018-07-23T11:04:07.329Z,28.70
2018-07-23T11:06:35.646Z,28.70
2018-07-23T11:09:05.869Z,28.70
2018-07-23T11:11:34.011Z,28.30
2018-07-23T11:14:02.209Z,27.90
2018-07-23T11:16:30.391Z,27.90
2018-07-23T11:18:59.159Z,27.80
2018-07-23T11:21:27.531Z,27.80
2018-07-23T11:23:55.765Z,28.00
2018-07-23T11:26:23.960Z,27.80
2018-07-23T11:28:52.082Z,28.10
2018-07-23T11:31:20.351Z,28.00
2018-07-23T11:33:48.500Z,28.00
2018-07-23T11:36:16.670Z,27.80
2018-07-23T11:38:44.962Z,28.10
2018-07-23T11:41:13.107Z,28.30
2018-07-23T11:43:41.410Z,28.20
2018-07-23T11:46:16.624Z,28.00
2018-07-23T11:48:37.755Z,27.90
2018-07-23T11:51:05.944Z,27.90
2018-07-23T11:53:34.141Z,27.80
2018-07-23T11:56:02.385Z,27.70
2018-07-23T11:58:30.548Z,27.50
2018-07-23T12:00:58.751Z,27.50
2018-07-23T12:03:26.924Z,27.90
2018-07-23T12:05:55.080Z,28.10
2018-07-23T12:08:23.246Z,28.00
2018-07-23T12:10:51.419Z,27.90
2018-07-23T12:13:19.608Z,27.90
2018-07-23T12:15:47.754Z,27.80
2018-07-23T12:18:15.908Z,28.10
2018-07-23T12:20:44.201Z,27.90
2018-07-23T12:23:12.444Z,27.90
2018-07-23T12:25:40.668Z,27.90
2018-07-23T12:28:08.906Z,28.00
2018-07-23T12:30:37.128Z,27.90
2018-07-23T12:33:06.046Z,27.90
2018-07-23T12:35:34.355Z,28.00
2018-07-23T12:38:02.670Z,28.00
2018-07-23T12:40:30.874Z,27.80
2018-07-23T12:42:59.907Z,27.90
2018-07-23T12:45:28.126Z,28.10
2018-07-23T12:47:56.337Z,28.20
2018-07-23T12:50:24.506Z,28.10
2018-07-23T12:52:52.695Z,27.80
2018-07-23T12:55:20.884Z,27.60
2018-07-23T12:57:49.067Z,27.50
2018-07-23T13:00:17.308Z,27.30
2018-07-23T13:02:45.513Z,27.30
2018-07-23T13:05:13.676Z,27.40
2018-07-23T13:07:41.871Z,27.40
2018-07-23T13:10:10.095Z,27.40
2018-07-23T13:12:38.291Z,27.70
2018-07-23T13:15:06.488Z,27.60
2018-07-23T13:17:34.663Z,27.60
2018-07-23T13:20:02.915Z,27.50
2018-07-23T13:22:31.141Z,27.50
2018-07-23T13:24:59.760Z,27.50
2018-07-23T13:27:27.937Z,27.60
2018-07-23T13:29:56.167Z,27.70
2018-07-23T13:32:24.387Z,27.90
2018-07-23T13:34:52.542Z,27.70
2018-07-23T13:37:20.849Z,27.70
2018-07-23T13:39:49.089Z,27.80
2018-07-23T13:42:17.275Z,28.10
2018-07-23T13:44:45.576Z,28.20
2018-07-23T13:47:13.830Z,28.30
2018-07-23T13:49:42.247Z,28.30
2018-07-23T13:52:10.438Z,28.30
2018-07-23T13:54:38.642Z,28.10
2018-07-23T13:57:06.840Z,27.90
2018-07-23T13:59:35.035Z,27.80
2018-07-23T14:02:03.223Z,27.80
2018-07-23T14:04:31.575Z,27.90
2018-07-23T14:06:59.803Z,27.90
2018-07-23T14:09:28.023Z,27.90
2018-07-23T14:11:56.299Z,27.90
2018-07-23T14:14:24.494Z,28.10
2018-07-23T14:16:52.704Z,27.90
2018-07-23T14:19:20.919Z,28.10
2018-07-23T14:21:49.119Z,28.10
2018-07-23T14:24:17.317Z,28.00
2018-07-23T14:26:45.583Z,28.10
2018-07-23T14:29:13.802Z,28.20
2018-07-23T14:31:42.557Z,28.10
2018-07-23T14:34:10.780Z,28.20
2018-07-23T14:36:39.081Z,28.30
2018-07-23T14:39:09.839Z,28.30
2018-07-23T14:41:38.314Z,28.40
2018-07-23T14:44:06.562Z,28.40
2018-07-23T14:46:36.149Z,28.50
2018-07-23T14:49:04.363Z,28.40
2018-07-23T14:51:32.590Z,28.40
2018-07-23T14:54:00.911Z,28.50
2018-07-23T14:56:29.303Z,28.70
2018-07-23T14:58:57.530Z,28.70
2018-07-23T15:01:25.725Z,28.80
2018-07-23T15:03:54.408Z,28.70
2018-07-23T15:06:22.612Z,28.70
2018-07-23T15:08:50.850Z,28.70
2018-07-23T15:11:19.105Z,28.70
2018-07-23T15:13:48.503Z,28.60
2018-07-23T15:16:16.805Z,28.50
2018-07-23T15:18:45.059Z,28.60
2018-07-23T15:21:13.498Z,28.70
2018-07-23T15:23:41.837Z,28.90
2018-07-23T15:26:10.032Z,29.00
2018-07-23T15:28:38.254Z,29.00
2018-07-23T15:31:06.937Z,29.00
2018-07-23T15:33:35.127Z,29.00
2018-07-23T15:36:03.272Z,29.00
2018-07-23T15:38:31.540Z,29.00
2018-07-23T15:40:59.768Z,28.80
2018-07-23T15:43:27.944Z,28.80
2018-07-23T15:45:56.461Z,28.90
2018-07-23T15:48:25.111Z,28.90
2018-07-23T15:50:53.484Z,29.00
2018-07-23T15:53:21.671Z,29.10
2018-07-23T15:55:49.840Z,29.00
2018-07-23T15:58:18.090Z,28.90
2018-07-23T16:00:46.272Z,28.80
2018-07-23T16:03:14.457Z,28.70
2018-07-23T16:05:42.643Z,28.70
2018-07-23T16:08:10.779Z,28.70
2018-07-23T16:10:38.939Z,28.80
2018-07-23T16:13:07.051Z,28.80
2018-07-23T16:15:35.203Z,28.90
2018-07-23T16:18:03.379Z,29.00
2018-07-23T16:20:31.570Z,28.80
2018-07-23T16:22:59.731Z,28.90
2018-07-23T16:25:27.918Z,29.10
2018-07-23T16:27:56.051Z,29.20
2018-07-23T16:30:24.377Z,29.30
2018-07-23T16:32:52.759Z,29.30
2018-07-23T16:35:21.136Z,29.40
2018-07-23T16:37:49.357Z,29.50
2018-07-23T16:40:17.521Z,30.10
2018-07-23T16:42:45.880Z,30.60
2018-07-23T16:45:14.263Z,30.70
2018-07-23T16:47:42.411Z,30.50
2018-07-23T16:50:10.542Z,30.10
2018-07-23T16:52:38.727Z,29.70
2018-07-23T16:55:06.871Z,29.60
2018-07-23T16:57:35.059Z,29.60
2018-07-23T17:00:03.500Z,29.60
2018-07-23T17:02:31.805Z,29.40
2018-07-23T17:04:59.980Z,29.40
2018-07-23T17:07:28.144Z,29.30
2018-07-23T17:09:56.282Z,29.20
2018-07-23T17:12:24.463Z,29.10
2018-07-23T17:14:52.791Z,29.00
2018-07-23T17:17:20.972Z,28.70
2018-07-23T17:19:49.264Z,28.80
2018-07-23T17:22:17.705Z,28.80
2018-07-23T17:24:45.886Z,28.90
2018-07-23T17:27:14.074Z,29.20
2018-07-23T17:29:42.332Z,29.50
2018-07-23T17:32:10.588Z,29.50
2018-07-23T17:34:38.828Z,29.50
2018-07-23T17:37:06.994Z,29.30
2018-07-23T17:39:35.200Z,29.10
2018-07-23T17:42:03.468Z,29.00
2018-07-23T17:44:31.671Z,28.80
2018-07-23T17:46:59.885Z,28.70
2018-07-23T17:49:28.228Z,28.80
2018-07-23T17:51:57.335Z,29.00
2018-07-23T17:54:25.575Z,29.40
2018-07-23T17:56:53.833Z,29.60
2018-07-23T17:59:22.044Z,30.10
2018-07-23T18:01:50.438Z,30.50
2018-07-23T18:04:18.624Z,30.90
2018-07-23T18:06:46.895Z,30.80
2018-07-23T18:09:15.351Z,30.80
2018-07-23T18:11:43.716Z,30.50
2018-07-23T18:14:11.890Z,30.10
2018-07-23T18:16:40.456Z,30.40
2018-07-23T18:19:08.688Z,30.90
2018-07-23T18:21:36.875Z,30.70
2018-07-23T18:24:05.141Z,30.70
2018-07-23T18:26:33.534Z,30.40
2018-07-23T18:29:01.834Z,29.90
2018-07-23T18:31:30.102Z,29.40
2018-07-23T18:33:58.317Z,29.30
2018-07-23T18:36:26.491Z,29.30
2018-07-23T18:38:54.695Z,29.50
2018-07-23T18:41:22.883Z,29.60
2018-07-23T18:43:51.064Z,29.40
2018-07-23T18:46:19.235Z,29.10
2018-07-23T18:49:24.795Z,28.30
2018-07-23T18:51:53.783Z,27.80
2018-07-23T18:54:23.095Z,27.30
2018-07-23T18:56:53.082Z,27.10
2018-07-23T18:59:21.250Z,26.80
2018-07-23T19:01:50.470Z,26.50
2018-07-23T19:04:18.750Z,26.20
2018-07-23T19:06:47.123Z,26.00
2018-07-23T19:09:16.640Z,25.70
2018-07-23T19:14:14.915Z,25.30
2018-07-23T19:16:43.566Z,25.10
2018-07-23T19:19:11.870Z,24.90
2018-07-23T19:21:40.155Z,24.70
2018-07-23T19:24:08.346Z,24.50
2018-07-23T19:26:36.554Z,24.30
2018-07-23T19:29:04.799Z,24.00
2018-07-23T19:31:32.924Z,23.90
2018-07-23T19:34:02.511Z,23.70
2018-07-23T19:36:30.921Z,23.50
2018-07-23T19:38:59.294Z,23.40
2018-07-23T19:41:27.995Z,23.30
2018-07-23T19:43:56.370Z,23.10
2018-07-23T19:46:24.544Z,22.90
2018-07-23T19:48:52.967Z,22.80
2018-07-23T19:51:21.145Z,22.70
2018-07-23T19:53:49.358Z,22.60
2018-07-23T19:56:17.842Z,22.40
2018-07-23T19:58:46.115Z,22.30
2018-07-23T20:01:14.283Z,22.30
2018-07-23T20:03:42.449Z,22.10
2018-07-23T20:06:10.607Z,22.00
2018-07-23T20:08:38.826Z,21.90
2018-07-23T20:11:07.287Z,21.80
2018-07-23T20:13:35.422Z,21.70
2018-07-23T20:16:03.615Z,21.60
2018-07-23T20:18:31.766Z,21.60
2018-07-23T20:20:59.959Z,21.50
2018-07-23T20:23:28.050Z,21.40
2018-07-23T20:25:56.243Z,21.40
2018-07-23T20:28:24.421Z,21.30
2018-07-23T20:30:52.570Z,21.30
2018-07-23T20:33:20.793Z,21.20
2018-07-23T20:35:49.012Z,21.10
2018-07-23T20:38:17.203Z,21.00
2018-07-23T20:40:45.784Z,20.90
2018-07-23T20:43:13.930Z,20.80
2018-07-23T20:45:42.110Z,20.70
2018-07-23T20:48:10.255Z,20.70
2018-07-23T20:50:38.420Z,20.70
2018-07-23T20:53:06.593Z,20.60
2018-07-23T20:55:34.725Z,20.60
2018-07-23T20:58:02.972Z,20.50
2018-07-23T21:00:31.175Z,20.50
2018-07-23T21:02:59.292Z,20.40
2018-07-23T21:05:27.446Z,20.30
2018-07-23T21:07:55.711Z,20.20
2018-07-23T21:12:51.805Z,20.10
2018-07-23T21:15:19.948Z,20.10
2018-07-23T21:17:48.103Z,20.00
2018-07-23T21:20:16.289Z,19.90
2018-07-23T21:22:44.439Z,19.90
2018-07-23T21:25:12.595Z,19.90
2018-07-23T21:27:40.779Z,19.80
2018-07-23T21:30:08.939Z,19.80
2018-07-23T21:32:37.099Z,19.70
2018-07-23T21:35:05.870Z,19.60
2018-07-23T21:37:34.509Z,19.60
2018-07-23T21:40:02.794Z,19.50
2018-07-23T21:42:31.040Z,19.50
2018-07-23T21:44:59.191Z,19.40
2018-07-23T21:47:27.366Z,19.30
2018-07-23T21:49:55.522Z,19.30
2018-07-23T21:52:23.821Z,19.30
2018-07-23T21:54:51.944Z,19.20
2018-07-23T21:57:20.079Z,19.20
2018-07-23T21:59:48.307Z,19.20
2018-07-23T22:02:16.457Z,19.10
2018-07-23T22:04:44.587Z,19.00
2018-07-23T22:07:12.718Z,19.00
2018-07-23T22:09:41.096Z,19.00
2018-07-23T22:12:09.247Z,18.90
2018-07-23T22:14:38.014Z,18.80
2018-07-23T22:17:06.175Z,18.80
2018-07-23T22:19:34.339Z,18.80
2018-07-23T22:22:02.526Z,18.70
2018-07-23T22:24:31.046Z,18.70
2018-07-23T22:26:59.259Z,18.60
2018-07-23T22:29:27.460Z,18.60
2018-07-23T22:31:55.629Z,18.60
2018-07-23T22:34:23.822Z,18.60
2018-07-23T22:36:51.998Z,18.60
2018-07-23T22:39:20.165Z,18.50
2018-07-23T22:41:48.323Z,18.50
2018-07-23T22:44:16.479Z,18.50
2018-07-23T22:46:44.663Z,18.40
2018-07-23T22:49:12.882Z,18.30
2018-07-23T22:51:41.050Z,18.30
2018-07-23T22:54:09.227Z,18.30
2018-07-23T22:56:37.548Z,18.20
2018-07-23T22:59:05.696Z,18.20
2018-07-23T23:01:33.863Z,18.10
2018-07-23T23:04:02.046Z,18.10
2018-07-23T23:06:30.215Z,18.10
2018-07-23T23:08:58.418Z,18.10
2018-07-23T23:11:26.630Z,18.00
2018-07-23T23:13:54.803Z,18.00
2018-07-23T23:16:22.975Z,18.00
2018-07-23T23:18:51.166Z,17.90
2018-07-23T23:21:20.287Z,17.90
2018-07-23T23:23:48.432Z,17.90
2018-07-23T23:26:16.960Z,17.80
2018-07-23T23:28:45.222Z,17.80
2018-07-23T23:31:13.391Z,17.80
2018-07-23T23:33:41.573Z,17.70
2018-07-23T23:36:09.716Z,17.70
2018-07-23T23:38:37.881Z,17.70
2018-07-23T23:41:06.059Z,17.60
2018-07-23T23:43:34.220Z,17.60
2018-07-23T23:46:02.410Z,17.60
2018-07-23T23:48:30.550Z,17.50
2018-07-23T23:50:58.723Z,17.50
2018-07-23T23:53:26.874Z,17.50
2018-07-23T23:55:55.031Z,17.40
2018-07-23T23:58:23.224Z,17.50
